Wetterdaten: Woche 11.03.19 - 17.03.19 (KW11)
Datum Zeit Temp. Aussen Temp. o. S. +5cm Feuchte Auss Luftdruck Regen Sonnenschein Regendauer Solar Windben Empfang
11.03.2019 00:00 4,1 C 3,2 C 2,4 C 90 % 1011,5 hPa 0,0 l/m 0,00 h 0,20 h 0 W/m 12,2 km/h (2 Bft) 99,66 %
11.03.2019 01:00 4,3 C 3,7 C 2,5 C 86 % 1011,1 hPa 0,0 l/m 0,00 h 0,00 h 0 W/m 20,9 km/h (4 Bft) 97,22 %
11.03.2019 02:00 3,6 C 2,8 C 2,0 C 89 % 1011,4 hPa 0,0 l/m 0,00 h 0,00 h 0 W/m 18,1 km/h (3 Bft) 96,59 %
11.03.2019 03:00 3,3 C 2,5 C 2,0 C 90 % 1011,1 hPa 0,0 l/m 0,00 h 0,57 h 0 W/m 20,2 km/h (4 Bft) 98,86 %
11.03.2019 04:00 3,1 C 2,7 C 2,1 C 90 % 1010,9 hPa 0,0 l/m 0,00 h 0,40 h 0 W/m 15,5 km/h (3 Bft) 95,58 %
11.03.2019 05:00 3,2 C 2,4 C 1,9 C 88 % 1011,1 hPa 0,0 l/m 0,00 h 0,43 h 0 W/m 17,4 km/h (3 Bft) 98,94 %
11.03.2019 06:00 2,8 C 2,2 C 1,7 C 89 % 1011,5 hPa 0,0 l/m 0,00 h 0,00 h 0 W/m 18,1 km/h (3 Bft) 96,49 %
11.03.2019 07:00 2,2 C 1,0 C 0,7 C 90 % 1012,2 hPa 0,6 l/m 0,00 h 0,73 h 11 W/m 20,5 km/h (4 Bft) 93,37 %
11.03.2019 08:00 2,1 C 1,5 C 1,2 C 94 % 1012,7 hPa 0,2 l/m 0,07 h 0,60 h 63 W/m 16,6 km/h (3 Bft) 97,51 %
11.03.2019 09:00 2,8 C 2,7 C 2,3 C 94 % 1013,5 hPa 0,0 l/m 0,23 h 0,00 h 137 W/m 20,1 km/h (4 Bft) 93,39 %
11.03.2019 10:00 3,7 C 4,4 C 3,2 C 92 % 1014,0 hPa 0,0 l/m 0,47 h 0,03 h 247 W/m 20,7 km/h (4 Bft) 97,44 %
11.03.2019 11:00 5,6 C 8,2 C 5,6 C 86 % 1014,3 hPa 0,0 l/m 0,77 h 0,00 h 403 W/m 26,3 km/h (4 Bft) 99,07 %
11.03.2019 12:00 7,6 C 10,7 C 8,4 C 76 % 1015,0 hPa 0,0 l/m 0,87 h 0,00 h 435 W/m 30,3 km/h (5 Bft) 96,91 %
11.03.2019 13:00 7,9 C 9,3 C 8,7 C 73 % 1015,7 hPa 0,0 l/m 0,40 h 0,10 h 303 W/m 25,8 km/h (4 Bft) 98,36 %
11.03.2019 14:00 7,6 C 8,8 C 7,1 C 73 % 1016,4 hPa 0,0 l/m 0,40 h 0,27 h 320 W/m 32,1 km/h (5 Bft) 95,32 %
11.03.2019 15:00 7,6 C 7,9 C 7,1 C 72 % 1017,0 hPa 0,0 l/m 0,23 h 0,03 h 164 W/m 30,5 km/h (5 Bft) 96,60 %
11.03.2019 16:00 7,3 C 8,0 C 6,6 C 74 % 1017,6 hPa 0,0 l/m 0,43 h 0,33 h 176 W/m 33,9 km/h (5 Bft) 97,94 %
11.03.2019 17:00 7,4 C 7,0 C 6,4 C 71 % 1018,2 hPa 0,0 l/m 0,37 h 0,00 h 68 W/m 37,3 km/h (5 Bft) 96,44 %
11.03.2019 18:00 6,7 C 6,0 C 5,4 C 73 % 1019,4 hPa 0,0 l/m 0,00 h 0,00 h 13 W/m 33,1 km/h (5 Bft) 96,15 %
11.03.2019 19:00 6,1 C 5,6 C 5,0 C 76 % 1020,7 hPa 0,0 l/m 0,00 h 0,10 h 0 W/m 26,3 km/h (4 Bft) 97,15 %
11.03.2019 20:00 5,8 C 5,1 C 4,6 C 78 % 1021,6 hPa 0,0 l/m 0,00 h 0,00 h 0 W/m 22,7 km/h (4 Bft) 96,72 %
11.03.2019 21:00 5,1 C 4,2 C 3,7 C 81 % 1022,3 hPa 0,0 l/m 0,00 h 0,00 h 0 W/m 11,5 km/h (2 Bft) 99,64 %
11.03.2019 22:00 4,2 C 3,1 C 2,6 C 83 % 1022,7 hPa 0,0 l/m 0,00 h 0,00 h 0 W/m 7,9 km/h (2 Bft) 95,37 %
11.03.2019 23:00 3,5 C 2,8 C 2,2 C 85 % 1023,0 hPa 0,0 l/m 0,00 h 0,00 h 0 W/m 7,0 km/h (2 Bft) 97,23 %
12.03.2019 00:00 3,0 C 2,0 C 1,2 C 86 % 1022,8 hPa 0,0 l/m 0,00 h 0,00 h 0 W/m 4,9 km/h (1 Bft) 98,63 %
12.03.2019 01:00 2,5 C 1,9 C 1,3 C 89 % 1022,5 hPa 0,0 l/m 0,00 h 0,00 h 0 W/m 4,1 km/h (1 Bft) 98,15 %
12.03.2019 02:00 2,5 C 2,1 C 1,5 C 89 % 1022,1 hPa 0,0 l/m 0,00 h 0,00 h 0 W/m 8,7 km/h (2 Bft) 96,73 %
12.03.2019 03:00 2,4 C 2,1 C 1,5 C 88 % 1021,3 hPa 0,0 l/m 0,00 h 0,00 h 0 W/m 10,4 km/h (2 Bft) 97,58 %
12.03.2019 04:00 2,3 C 1,8 C 1,1 C 87 % 1020,7 hPa 0,0 l/m 0,00 h 0,00 h 0 W/m 12,5 km/h (3 Bft) 97,50 %
12.03.2019 05:00 2,4 C 2,1 C 1,4 C 88 % 1020,0 hPa 0,0 l/m 0,00 h 0,00 h 0 W/m 12,1 km/h (2 Bft) 98,56 %
12.03.2019 06:00 3,0 C 2,8 C 2,1 C 90 % 1019,1 hPa 0,0 l/m 0,00 h 0,00 h 3 W/m 13,9 km/h (3 Bft) 97,16 %
12.03.2019 07:00 3,7 C 3,7 C 3,0 C 91 % 1018,4 hPa 0,0 l/m 0,00 h 0,00 h 23 W/m 14,8 km/h (3 Bft) 94,87 %
12.03.2019 08:00 4,4 C 4,5 C 3,9 C 89 % 1017,4 hPa 0,0 l/m 0,00 h 0,03 h 60 W/m 14,4 km/h (3 Bft) 98,08 %
12.03.2019 09:00 5,8 C 6,3 C 5,8 C 82 % 1016,0 hPa 0,0 l/m 0,00 h 0,00 h 135 W/m 24,8 km/h (4 Bft) 97,51 %
12.03.2019 10:00 7,2 C 7,4 C 7,0 C 73 % 1014,6 hPa 0,0 l/m 0,00 h 0,00 h 166 W/m 30,0 km/h (5 Bft) 96,44 %
12.03.2019 11:00 8,3 C 9,8 C 8,5 C 70 % 1013,0 hPa 0,0 l/m 0,90 h 0,00 h 364 W/m 30,3 km/h (5 Bft) 98,86 %
12.03.2019 12:00 9,4 C 10,6 C 10,1 C 63 % 1011,5 hPa 0,0 l/m 0,97 h 0,00 h 363 W/m 36,4 km/h (5 Bft) 97,13 %
12.03.2019 13:00 10,3 C 11,0 C 10,5 C 57 % 1009,9 hPa 0,0 l/m 0,83 h 0,00 h 314 W/m 39,3 km/h (6 Bft) 98,52 %
12.03.2019 14:00 10,3 C 10,6 C 10,2 C 57 % 1007,8 hPa 0,0 l/m 0,37 h 0,00 h 241 W/m 33,3 km/h (5 Bft) 96,08 %
12.03.2019 15:00 10,1 C 10,0 C 9,5 C 58 % 1005,9 hPa 0,0 l/m 0,00 h 0,00 h 131 W/m 32,3 km/h (5 Bft) 98,21 %
12.03.2019 16:00 9,9 C 9,5 C 9,0 C 60 % 1004,0 hPa 0,0 l/m 0,00 h 0,00 h 62 W/m 29,3 km/h (5 Bft) 97,71 %
12.03.2019 17:00 9,7 C 9,2 C 8,8 C 57 % 1002,0 hPa 0,0 l/m 0,00 h 0,00 h 25 W/m 32,2 km/h (5 Bft) 95,79 %
12.03.2019 18:00 9,5 C 8,9 C 8,3 C 56 % 1000,6 hPa 0,0 l/m 0,00 h 0,00 h 10 W/m 26,1 km/h (4 Bft) 99,22 %
12.03.2019 19:00 9,3 C 8,9 C 8,3 C 57 % 998,9 hPa 0,0 l/m 0,00 h 0,00 h 0 W/m 25,5 km/h (4 Bft) 97,08 %
12.03.2019 20:00 9,1 C 7,3 C 6,5 C 65 % 998,4 hPa 0,2 l/m 0,00 h 0,90 h 0 W/m 26,7 km/h (4 Bft) 94,81 %
12.03.2019 21:00 9,0 C 7,3 C 6,9 C 75 % 997,9 hPa 0,4 l/m 0,00 h 0,97 h 0 W/m 30,9 km/h (5 Bft) 99,65 %
12.03.2019 22:00 5,6 C 3,9 C 3,5 C 88 % 1000,7 hPa 0,4 l/m 0,00 h 1,00 h 0 W/m 27,8 km/h (4 Bft) 98,36 %
12.03.2019 23:00 4,8 C 3,9 C 3,3 C 91 % 1001,9 hPa 0,0 l/m 0,00 h 0,10 h 0 W/m 18,4 km/h (3 Bft) 95,65 %
13.03.2019 00:00 4,8 C 4,3 C 3,3 C 90 % 1002,9 hPa 0,0 l/m 0,00 h 0,00 h 0 W/m 19,3 km/h (3 Bft) 97,70 %
13.03.2019 01:00 4,9 C 4,4 C 3,6 C 87 % 1003,4 hPa 0,0 l/m 0,00 h 0,00 h 0 W/m 18,0 km/h (3 Bft) 98,21 %
13.03.2019 02:00 5,2 C 4,8 C 4,3 C 86 % 1003,2 hPa 0,0 l/m 0,00 h 0,00 h 0 W/m 24,1 km/h (4 Bft) 97,58 %
13.03.2019 03:00 5,3 C 4,7 C 4,2 C 86 % 1002,9 hPa 0,0 l/m 0,00 h 0,00 h 0 W/m 28,6 km/h (4 Bft) 97,01 %
13.03.2019 04:00 5,4 C 5,0 C 4,4 C 85 % 1002,6 hPa 0,0 l/m 0,00 h 0,00 h 0 W/m 28,3 km/h (4 Bft) 98,36 %
13.03.2019 05:00 5,6 C 5,1 C 4,5 C 83 % 1002,6 hPa 0,0 l/m 0,00 h 0,00 h 0 W/m 30,6 km/h (5 Bft) 98,09 %
13.03.2019 06:00 6,0 C 5,6 C 5,0 C 81 % 1002,4 hPa 0,0 l/m 0,00 h 0,00 h 0 W/m 33,8 km/h (5 Bft) 97,79 %
13.03.2019 07:00 6,2 C 5,6 C 5,0 C 81 % 1002,3 hPa 0,0 l/m 0,00 h 0,00 h 13 W/m 35,2 km/h (5 Bft) 96,37 %
13.03.2019 08:00 6,1 C 5,8 C 5,2 C 83 % 1002,0 hPa 0,0 l/m 0,00 h 0,27 h 68 W/m 37,5 km/h (5 Bft) 98,15 %
13.03.2019 09:00 6,3 C 5,9 C 5,3 C 84 % 1001,8 hPa 0,0 l/m 0,00 h 0,53 h 117 W/m 35,7 km/h (5 Bft) 97,44 %
13.03.2019 10:00 6,3 C 5,2 C 4,7 C 86 % 1001,6 hPa 0,6 l/m 0,03 h 0,83 h 113 W/m 31,9 km/h (5 Bft) 96,59 %
13.03.2019 11:00 6,7 C 5,9 C 5,6 C 88 % 1001,4 hPa 0,0 l/m 0,10 h 0,73 h 197 W/m 32,2 km/h (5 Bft) 97,72 %
13.03.2019 12:00 7,4 C 7,6 C 7,3 C 84 % 1001,0 hPa 0,0 l/m 0,17 h 0,00 h 213 W/m 37,3 km/h (5 Bft) 96,65 %
13.03.2019 13:00 7,1 C 5,8 C 5,3 C 87 % 1000,9 hPa 0,8 l/m 0,00 h 0,90 h 85 W/m 29,5 km/h (5 Bft) 97,72 %
13.03.2019 14:00 7,0 C 5,9 C 5,5 C 91 % 1000,7 hPa 0,4 l/m 0,00 h 0,95 h 132 W/m 26,6 km/h (4 Bft) 97,94 %
13.03.2019 15:00 7,0 C 5,5 C 5,2 C 92 % 1001,0 hPa 1,2 l/m 0,00 h 0,97 h 49 W/m 23,8 km/h (4 Bft) 96,41 %
13.03.2019 16:00 6,4 C 5,0 C 4,6 C 93 % 1001,4 hPa 2,8 l/m 0,00 h 0,93 h 13 W/m 17,8 km/h (3 Bft) 98,70 %
13.03.2019 17:00 5,3 C 4,3 C 3,9 C 93 % 1002,0 hPa 1,0 l/m 0,03 h 0,33 h 26 W/m 12,5 km/h (3 Bft) 97,58 %
13.03.2019 18:00 5,6 C 4,6 C 4,1 C 95 % 1002,5 hPa 1,2 l/m 0,00 h 0,53 h 6 W/m 13,7 km/h (3 Bft) 95,53 %
13.03.2019 19:00 5,8 C 4,8 C 4,3 C 95 % 1003,5 hPa 0,0 l/m 0,00 h 0,60 h 0 W/m 14,2 km/h (3 Bft) 99,72 %
13.03.2019 20:00 5,6 C 4,4 C 3,9 C 94 % 1004,7 hPa 0,0 l/m 0,00 h 0,17 h 0 W/m 14,9 km/h (3 Bft) 97,52 %
13.03.2019 21:00 5,5 C 4,8 C 3,9 C 92 % 1005,4 hPa 0,0 l/m 0,00 h 0,13 h 0 W/m 14,5 km/h (3 Bft) 95,78 %
13.03.2019 22:00 5,6 C 5,0 C 4,2 C 92 % 1006,2 hPa 0,2 l/m 0,00 h 0,00 h 0 W/m 16,9 km/h (3 Bft) 99,49 %
13.03.2019 23:00 5,4 C 5,0 C 4,2 C 91 % 1006,9 hPa 0,0 l/m 0,00 h 0,00 h 0 W/m 15,2 km/h (3 Bft) 96,79 %
14.03.2019 00:00 5,4 C 4,3 C 3,9 C 92 % 1007,6 hPa 1,2 l/m 0,00 h 1,00 h 0 W/m 11,2 km/h (2 Bft) 97,78 %
14.03.2019 01:00 5,6 C 4,7 C 4,0 C 94 % 1007,8 hPa 0,0 l/m 0,00 h 0,33 h 0 W/m 13,5 km/h (3 Bft) 97,73 %
14.03.2019 02:00 5,7 C 5,2 C 4,4 C 93 % 1007,8 hPa 0,0 l/m 0,00 h 0,00 h 0 W/m 14,0 km/h (3 Bft) 96,58 %
14.03.2019 03:00 6,0 C 5,6 C 4,9 C 91 % 1007,1 hPa 0,0 l/m 0,00 h 0,00 h 0 W/m 16,1 km/h (3 Bft) 99,71 %
14.03.2019 04:00 6,2 C 5,7 C 5,0 C 90 % 1006,6 hPa 0,0 l/m 0,00 h 0,03 h 0 W/m 16,1 km/h (3 Bft) 95,37 %
14.03.2019 05:00 6,2 C 5,6 C 5,0 C 86 % 1005,8 hPa 0,0 l/m 0,00 h 0,00 h 0 W/m 17,9 km/h (3 Bft) 98,11 %
14.03.2019 06:00 6,1 C 5,4 C 4,8 C 87 % 1004,7 hPa 0,0 l/m 0,00 h 0,33 h 0 W/m 18,3 km/h (3 Bft) 99,12 %
14.03.2019 07:00 5,9 C 4,4 C 4,0 C 91 % 1003,6 hPa 0,2 l/m 0,00 h 1,00 h 10 W/m 22,6 km/h (4 Bft) 94,61 %
14.03.2019 08:00 5,9 C 4,9 C 4,4 C 94 % 1002,2 hPa 0,6 l/m 0,00 h 1,00 h 23 W/m 24,0 km/h (4 Bft) 98,03 %
14.03.2019 09:00 5,9 C 5,0 C 4,4 C 95 % 1000,7 hPa 1,2 l/m 0,00 h 1,00 h 35 W/m 27,2 km/h (4 Bft) 99,00 %
14.03.2019 10:00 6,1 C 5,0 C 4,4 C 95 % 999,0 hPa 1,2 l/m 0,00 h 1,00 h 70 W/m 31,1 km/h (5 Bft) 95,62 %
14.03.2019 11:00 6,4 C 5,4 C 4,9 C 94 % 997,2 hPa 1,0 l/m 0,00 h 1,00 h 122 W/m 29,2 km/h (5 Bft) 98,01 %
14.03.2019 12:00 6,7 C 5,7 C 5,2 C 94 % 995,4 hPa 1,4 l/m 0,00 h 1,00 h 112 W/m 38,0 km/h (5 Bft) 98,14 %
14.03.2019 13:00 7,4 C 6,5 C 6,1 C 96 % 994,1 hPa 0,6 l/m 0,00 h 1,00 h 86 W/m 26,5 km/h (4 Bft) 96,58 %
14.03.2019 14:00 8,5 C 8,0 C 7,4 C 97 % 993,5 hPa 0,2 l/m 0,00 h 0,73 h 114 W/m 24,6 km/h (4 Bft) 97,86 %
14.03.2019 15:00 9,9 C 10,2 C 8,4 C 94 % 994,0 hPa 0,0 l/m 0,30 h 0,73 h 207 W/m 26,0 km/h (4 Bft) 97,94 %
14.03.2019 16:00 8,6 C 7,2 C 6,5 C 90 % 995,1 hPa 2,8 l/m 0,00 h 0,97 h 47 W/m 32,9 km/h (5 Bft) 96,65 %
14.03.2019 17:00 7,6 C 6,4 C 6,0 C 94 % 996,2 hPa 0,2 l/m 0,00 h 0,63 h 29 W/m 23,9 km/h (4 Bft) 95,52 %
14.03.2019 18:00 7,6 C 6,5 C 5,7 C 92 % 998,2 hPa 0,8 l/m 0,00 h 0,37 h 13 W/m 28,6 km/h (4 Bft) 99,46 %
14.03.2019 19:00 6,5 C 5,4 C 4,6 C 93 % 999,8 hPa 0,2 l/m 0,00 h 0,83 h 0 W/m 20,6 km/h (4 Bft) 97,43 %
14.03.2019 20:00 6,2 C 5,8 C 4,6 C 94 % 1001,0 hPa 0,0 l/m 0,00 h 0,03 h 0 W/m 13,1 km/h (3 Bft) 96,01 %
14.03.2019 21:00 6,7 C 6,2 C 4,9 C 93 % 1002,3 hPa 0,0 l/m 0,00 h 0,00 h 0 W/m 12,2 km/h (3 Bft) 98,15 %
14.03.2019 22:00 6,9 C 6,6 C 5,5 C 90 % 1003,1 hPa 0,0 l/m 0,00 h 0,00 h 0 W/m 4,8 km/h (1 Bft) 97,72 %
14.03.2019 23:00 7,1 C 6,7 C 5,6 C 88 % 1003,8 hPa 0,0 l/m 0,00 h 0,00 h 0 W/m 0,4 km/h (0 Bft) 97,84 %
15.03.2019 00:00 6,9 C 6,3 C 5,5 C 87 % 1004,2 hPa 0,0 l/m 0,00 h 0,00 h 0 W/m 1,9 km/h (1 Bft) 96,67 %
15.03.2019 01:00 6,8 C 6,6 C 5,6 C 87 % 1004,7 hPa 0,0 l/m 0,00 h 0,00 h 0 W/m 7,8 km/h (2 Bft) 97,72 %
15.03.2019 02:00 6,9 C 6,4 C 5,6 C 87 % 1004,7 hPa 0,0 l/m 0,00 h 0,00 h 0 W/m 13,6 km/h (3 Bft) 97,94 %
15.03.2019 03:00 6,8 C 6,1 C 5,6 C 87 % 1004,2 hPa 0,0 l/m 0,00 h 0,00 h 0 W/m 11,5 km/h (2 Bft) 95,51 %
15.03.2019 04:00 6,8 C 6,1 C 5,6 C 87 % 1003,7 hPa 0,0 l/m 0,00 h 0,00 h 0 W/m 11,2 km/h (2 Bft) 98,77 %
15.03.2019 05:00 6,9 C 6,5 C 5,6 C 87 % 1003,4 hPa 0,0 l/m 0,00 h 0,07 h 0 W/m 11,8 km/h (2 Bft) 98,23 %
15.03.2019 06:00 7,1 C 6,4 C 5,7 C 89 % 1002,9 hPa 0,0 l/m 0,00 h 0,53 h 0 W/m 12,7 km/h (3 Bft) 94,29 %
15.03.2019 07:00 7,2 C 6,1 C 5,6 C 92 % 1002,3 hPa 0,4 l/m 0,00 h 1,00 h 9 W/m 14,0 km/h (3 Bft) 99,22 %
15.03.2019 08:00 7,2 C 6,1 C 5,6 C 95 % 1001,5 hPa 1,2 l/m 0,00 h 1,00 h 31 W/m 8,9 km/h (2 Bft) 97,87 %
15.03.2019 09:00 7,7 C 7,2 C 6,7 C 97 % 1000,9 hPa 0,4 l/m 0,00 h 0,83 h 51 W/m 13,2 km/h (3 Bft) 96,22 %
15.03.2019 10:00 9,5 C 9,0 C 8,4 C 98 % 1001,0 hPa 0,4 l/m 0,00 h 1,00 h 80 W/m 14,9 km/h (3 Bft) 99,43 %
15.03.2019 11:00 10,4 C 9,6 C 9,2 C 99 % 1001,3 hPa 0,0 l/m 0,00 h 0,67 h 60 W/m 18,8 km/h (3 Bft) 97,79 %
15.03.2019 12:00 10,9 C 10,3 C 9,7 C 98 % 1001,8 hPa 0,0 l/m 0,00 h 0,77 h 93 W/m 21,0 km/h (4 Bft) 95,78 %
15.03.2019 13:00 11,9 C 12,6 C 11,0 C 97 % 1001,8 hPa 0,2 l/m 0,30 h 0,60 h 250 W/m 26,8 km/h (4 Bft) 97,94 %
15.03.2019 14:00 12,6 C 12,5 C 10,9 C 90 % 1001,7 hPa 0,0 l/m 0,10 h 0,03 h 125 W/m 25,5 km/h (4 Bft) 99,46 %
15.03.2019 15:00 12,5 C 12,2 C 11,6 C 89 % 1001,5 hPa 0,0 l/m 0,00 h 0,10 h 81 W/m 25,3 km/h (4 Bft) 95,90 %
15.03.2019 16:00 12,3 C 11,1 C 10,5 C 89 % 1001,6 hPa 0,4 l/m 0,00 h 0,70 h 28 W/m 28,3 km/h (4 Bft) 96,96 %
15.03.2019 17:00 11,4 C 10,0 C 9,4 C 94 % 1001,6 hPa 0,6 l/m 0,00 h 1,00 h 18 W/m 24,1 km/h (4 Bft) 99,66 %
15.03.2019 18:00 11,1 C 10,0 C 9,4 C 96 % 1002,3 hPa 1,4 l/m 0,00 h 1,00 h 6 W/m 19,7 km/h (3 Bft) 95,80 %
15.03.2019 19:00 10,5 C 8,9 C 8,7 C 97 % 1003,6 hPa 1,2 l/m 0,00 h 1,00 h 0 W/m 24,4 km/h (4 Bft) 97,29 %
15.03.2019 20:00 8,3 C 6,8 C 6,7 C 95 % 1004,7 hPa 0,0 l/m 0,00 h 0,70 h 0 W/m 17,2 km/h (3 Bft) 98,72 %
15.03.2019 21:00 8,1 C 6,9 C 6,7 C 95 % 1005,8 hPa 0,2 l/m 0,00 h 0,63 h 0 W/m 11,4 km/h (2 Bft) 96,44 %
15.03.2019 22:00 8,1 C 7,0 C 6,7 C 95 % 1006,0 hPa 0,0 l/m 0,00 h 0,10 h 0 W/m 4,9 km/h (1 Bft) 97,21 %
15.03.2019 23:00 8,1 C 7,5 C 6,7 C 95 % 1006,6 hPa 0,0 l/m 0,00 h 0,20 h 0 W/m 1,9 km/h (1 Bft) 98,08 %
16.03.2019 00:00 8,7 C 8,1 C 7,2 C 96 % 1007,1 hPa 0,0 l/m 0,00 h 0,80 h 0 W/m 7,1 km/h (2 Bft) 97,90 %
16.03.2019 01:00 8,8 C 7,8 C 7,0 C 95 % 1007,8 hPa 0,2 l/m 0,00 h 1,00 h 0 W/m 14,0 km/h (3 Bft) 96,86 %
16.03.2019 02:00 8,3 C 6,9 C 6,1 C 91 % 1008,0 hPa 0,2 l/m 0,00 h 0,93 h 0 W/m 12,6 km/h (3 Bft) 98,08 %
16.03.2019 03:00 8,0 C 6,3 C 5,9 C 91 % 1007,8 hPa 0,4 l/m 0,00 h 1,00 h 0 W/m 5,1 km/h (1 Bft) 97,72 %
16.03.2019 04:00 7,7 C 6,5 C 6,1 C 94 % 1007,5 hPa 1,0 l/m 0,00 h 1,00 h 0 W/m 3,6 km/h (1 Bft) 96,57 %
16.03.2019 05:00 7,7 C 6,7 C 6,1 C 96 % 1007,4 hPa 1,0 l/m 0,00 h 0,98 h 0 W/m 3,9 km/h (1 Bft) 98,60 %
16.03.2019 06:00 7,4 C 6,2 C 6,0 C 97 % 1007,2 hPa 0,8 l/m 0,00 h 1,00 h 0 W/m 2,9 km/h (1 Bft) 97,73 %
16.03.2019 07:00 7,2 C 6,3 C 5,9 C 97 % 1007,0 hPa 0,6 l/m 0,00 h 1,00 h 13 W/m 8,7 km/h (2 Bft) 96,36 %
16.03.2019 08:00 8,5 C 8,2 C 7,6 C 98 % 1006,5 hPa 0,0 l/m 0,00 h 0,43 h 61 W/m 19,4 km/h (3 Bft) 98,11 %
16.03.2019 09:00 9,5 C 9,2 C 8,3 C 98 % 1006,5 hPa 0,2 l/m 0,00 h 0,23 h 75 W/m 25,8 km/h (4 Bft) 96,36 %
16.03.2019 10:00 10,3 C 10,5 C 9,4 C 92 % 1006,2 hPa 0,0 l/m 0,00 h 0,07 h 135 W/m 30,6 km/h (5 Bft) 88,97 %
16.03.2019 11:00 11,1 C 11,3 C 10,7 C 86 % 1005,8 hPa 0,0 l/m 0,00 h 0,13 h 159 W/m 29,8 km/h (5 Bft) 93,59 %
16.03.2019 12:00 11,2 C 11,1 C 10,6 C 82 % 1005,7 hPa 0,0 l/m 0,00 h 0,00 h 91 W/m 28,9 km/h (5 Bft) 95,85 %
16.03.2019 13:00 11,0 C 10,6 C 10,0 C 83 % 1005,5 hPa 0,0 l/m 0,00 h 0,00 h 67 W/m 27,7 km/h (4 Bft) 97,66 %
16.03.2019 14:00 11,1 C 10,7 C 10,1 C 80 % 1005,0 hPa 0,0 l/m 0,00 h 0,00 h 67 W/m 29,0 km/h (5 Bft) 97,08 %
16.03.2019 15:00 11,1 C 10,6 C 10,0 C 80 % 1004,6 hPa 0,0 l/m 0,00 h 0,00 h 61 W/m 27,2 km/h (4 Bft) 98,42 %
16.03.2019 16:00 11,1 C 10,8 C 10,1 C 78 % 1003,7 hPa 0,0 l/m 0,00 h 0,00 h 61 W/m 27,8 km/h (4 Bft) 96,93 %
16.03.2019 17:00 11,2 C 10,7 C 10,1 C 78 % 1002,9 hPa 0,0 l/m 0,00 h 0,00 h 32 W/m 27,9 km/h (4 Bft) 97,23 %
16.03.2019 18:00 11,1 C 10,6 C 10,0 C 77 % 1002,6 hPa 0,0 l/m 0,00 h 0,00 h 10 W/m 27,0 km/h (4 Bft) 98,82 %
16.03.2019 19:00 10,9 C 10,3 C 9,7 C 78 % 1002,1 hPa 0,0 l/m 0,00 h 0,00 h 0 W/m 23,6 km/h (4 Bft) 96,59 %
16.03.2019 20:00 10,8 C 10,0 C 9,4 C 78 % 1001,7 hPa 0,0 l/m 0,00 h 0,00 h 0 W/m 23,7 km/h (4 Bft) 96,94 %
16.03.2019 21:00 10,7 C 10,0 C 9,4 C 79 % 1000,9 hPa 0,0 l/m 0,00 h 0,00 h 0 W/m 31,5 km/h (5 Bft) 98,79 %
16.03.2019 22:00 10,8 C 10,4 C 9,7 C 79 % 1000,1 hPa 0,0 l/m 0,00 h 0,00 h 0 W/m 32,5 km/h (5 Bft) 96,73 %
16.03.2019 23:00 11,0 C 10,6 C 9,9 C 79 % 999,5 hPa 0,0 l/m 0,00 h 0,00 h 0 W/m 34,0 km/h (5 Bft) 98,28 %
17.03.2019 00:00 11,2 C 10,6 C 10,0 C 78 % 998,8 hPa 0,0 l/m 0,00 h 0,00 h 0 W/m 29,4 km/h (5 Bft) 96,99 %
17.03.2019 01:00 11,1 C 10,6 C 10,0 C 78 % 998,1 hPa 0,0 l/m 0,00 h 0,00 h 0 W/m 25,3 km/h (4 Bft) 97,34 %
17.03.2019 02:00 10,8 C 10,1 C 9,5 C 79 % 997,3 hPa 0,0 l/m 0,00 h 0,00 h 0 W/m 26,3 km/h (4 Bft) 99,36 %
17.03.2019 03:00 10,6 C 10,0 C 9,4 C 79 % 996,6 hPa 0,0 l/m 0,00 h 0,00 h 0 W/m 29,2 km/h (5 Bft) 95,56 %
17.03.2019 04:00 10,3 C 9,2 C 8,7 C 78 % 996,1 hPa 0,0 l/m 0,00 h 0,50 h 0 W/m 25,4 km/h (4 Bft) 98,21 %
17.03.2019 05:00 9,6 C 8,2 C 7,7 C 83 % 995,9 hPa 0,2 l/m 0,00 h 0,70 h 0 W/m 31,2 km/h (5 Bft) 99,56 %
17.03.2019 06:00 8,6 C 6,7 C 6,2 C 89 % 995,9 hPa 0,8 l/m 0,00 h 1,00 h 0 W/m 29,6 km/h (5 Bft) 95,20 %
17.03.2019 07:00 8,2 C 6,7 C 6,1 C 92 % 996,3 hPa 0,8 l/m 0,00 h 0,98 h 12 W/m 28,0 km/h (4 Bft) 97,30 %
17.03.2019 08:00 7,6 C 6,2 C 5,8 C 93 % 997,5 hPa 0,8 l/m 0,00 h 1,00 h 45 W/m 20,3 km/h (4 Bft) 98,93 %
17.03.2019 09:00 6,9 C 6,5 C 6,2 C 93 % 998,4 hPa 0,0 l/m 0,03 h 0,13 h 128 W/m 10,2 km/h (2 Bft) 96,36 %
17.03.2019 10:00 8,1 C 7,8 C 7,1 C 91 % 999,0 hPa 0,0 l/m 0,10 h 0,00 h 197 W/m 19,0 km/h (3 Bft) 97,28 %
17.03.2019 11:00 8,5 C 10,7 C 7,0 C 85 % 999,8 hPa 0,2 l/m 0,40 h 0,40 h 337 W/m 22,4 km/h (4 Bft) 97,65 %
17.03.2019 12:00 9,8 C 13,8 C 10,1 C 81 % 1000,5 hPa 0,0 l/m 0,70 h 0,23 h 517 W/m 23,6 km/h (4 Bft) 98,79 %
17.03.2019 13:00 9,2 C 9,8 C 8,7 C 75 % 1001,5 hPa 0,0 l/m 0,37 h 0,50 h 312 W/m 22,7 km/h (4 Bft) 96,84 %
17.03.2019 14:00 8,9 C 11,9 C 8,6 C 78 % 1002,0 hPa 0,0 l/m 0,63 h 0,10 h 447 W/m 21,1 km/h (4 Bft) 96,70 %
17.03.2019 15:00 9,0 C 9,1 C 8,1 C 75 % 1002,6 hPa 0,0 l/m 0,17 h 0,00 h 158 W/m 20,7 km/h (4 Bft) 97,42 %
17.03.2019 16:00 8,2 C 8,0 C 7,5 C 77 % 1003,1 hPa 0,0 l/m 0,13 h 0,30 h 96 W/m 14,8 km/h (3 Bft) 97,78 %
17.03.2019 17:00 7,8 C 7,2 C 6,7 C 78 % 1003,8 hPa 0,0 l/m 0,13 h 0,00 h 57 W/m 13,3 km/h (3 Bft) 98,28 %
17.03.2019 18:00 6,9 C 5,8 C 5,3 C 80 % 1005,0 hPa 0,0 l/m 0,00 h 0,37 h 13 W/m 10,7 km/h (2 Bft) 96,70 %
17.03.2019 19:00 5,5 C 4,4 C 3,8 C 80 % 1006,2 hPa 0,0 l/m 0,00 h 0,87 h 0 W/m 15,9 km/h (3 Bft) 96,94 %
17.03.2019 20:00 4,3 C 3,3 C 3,0 C 84 % 1007,2 hPa 0,0 l/m 0,00 h 0,13 h 0 W/m 17,7 km/h (3 Bft) 98,00 %
17.03.2019 21:00 3,5 C 2,8 C 2,2 C 88 % 1007,6 hPa 0,0 l/m 0,00 h 0,00 h 0 W/m 13,8 km/h (3 Bft) 98,72 %
17.03.2019 22:00 3,5 C 3,0 C 2,4 C 87 % 1008,3 hPa 0,0 l/m 0,00 h 0,00 h 0 W/m 17,1 km/h (3 Bft) 95,73 %
17.03.2019 23:00 3,2 C 2,7 C 2,2 C 89 % 1008,8 hPa 0,0 l/m 0,00 h 0,00 h 0 W/m 12,7 km/h (3 Bft) 98,22 %
Min-Datum _ 11.03.19 11.03.19 11.03.19 12.03.19 14.03.19 - - - - 12.03.19 16.03.19
_ Min-Zeit 07:54 07:26 07:50 13:44 14:30 - - - - 00:36 10:42
Minimum _ 1,7 C 0,6 C 0,0 C 55 % 993,2 hPa - - - - 0,0 km/h (0 Bft) 70,21 %
Max-Datum _ 15.03.19 17.03.19 17.03.19 15.03.19 12.03.19 13.03.19 12.03.19 13.03.19 17.03.19 11.03.19 11.03.19
_ Max-Zeit 14:12 11:48 12:50 11:16 00:02 16:36 12:08 14:20 11:58 16:58 00:10
Maximum _ 12,8 C 16,7 C 15,6 C 99 % 1023,3 hPa 2,8 l/m 0,07 h 0,08 h 837 W/m 70,8 km/h
N-NW (8 Bft)
100,00 %
Durchschnitt _ 7,2 C 6,7 C 6,0 C 86 % 1005,7 hPa #35,2 l/m #11:00 h #55:29 h 119 W/m 21,0 km/h (4 Bft) 97,33 %
© 2019 W. Hausmann